Ayer, Massachusetts
Current Conditions -  °F | °C
As of 2:04 AM on Friday 28 Nov 2014 (Local Time) from KFIT Reporting Station
Light Snow Light Snow  
Wind Chill: -5°   Ceiling: 4200
Heat Index: -2°   Visibility: 2.5mi
Dew Point: -4°   Wind: 5mph
Humidity: 85%   Direction: 330°NNW
Pressure: 30.01"   Gusts: NA
Location:  42.56°N, 71.58°W
Report Text: KFIT 280704Z AUTO 33004KT 2 1/2SM -SN BR OVC042 M02/M04 A3001 RMK AO2 P0000 T10171039
Loading
Personal Weather Stations






























Interactive Weather Map New forecast layout! Learn more

10-Day Weather Forecast

Advertisements
Track Severe Weather on mobile